Time;durP1;ratioP1;P1;durP2;ratioP2;P2;SDS_P1;SDS_P2;PMS_P1;PMS_P2;Temp;Humidity;BMP_temperature;BMP_pressure;BME280_temperature;BME280_humidity;BME280_pressure;Samples;Min_cycle;Max_cycle;Signal;HPM_P1;HPM_P2
2021/03/12 00:01:41;;;;;;;8.90;2.47;;;7.90;61.40;;;;;;5074339;28;20661;-78
2021/03/12 00:04:07;;;;;;;10.80;2.50;;;7.80;64.10;;;;;;5074878;28;20168;-81
2021/03/12 00:06:33;;;;;;;13.57;2.80;;;7.80;64.90;;;;;;5075088;28;20172;-82
2021/03/12 00:08:58;;;;;;;9.33;1.87;;;7.90;65.30;;;;;;5074644;28;20209;-78
2021/03/12 00:11:24;;;;;;;10.73;2.83;;;7.90;65.30;;;;;;5074029;28;20204;-86
2021/03/12 00:13:49;;;;;;;13.83;2.80;;;8.00;67.10;;;;;;5074345;28;20263;-79
2021/03/12 00:16:15;;;;;;;12.03;2.67;;;7.90;69.30;;;;;;5074224;28;20259;-84
2021/03/12 00:18:43;;;;;;;10.43;2.70;;;7.80;72.20;;;;;;5074724;28;20169;-84
2021/03/12 00:21:11;;;;;;;13.70;3.27;;;7.80;74.10;;;;;;5072084;28;20359;-81
2021/03/12 00:23:38;;;;;;;10.93;3.03;;;7.90;73.80;;;;;;5076409;28;20172;-85
2021/03/12 00:26:04;;;;;;;12.47;3.90;;;7.90;73.20;;;;;;5075203;28;20165;-85
2021/03/12 00:28:30;;;;;;;13.33;3.27;;;7.90;73.20;;;;;;5074145;28;20172;-82
2021/03/12 00:30:56;;;;;;;12.40;3.10;;;7.90;72.50;;;;;;5072569;28;20183;-79
2021/03/12 00:33:23;;;;;;;15.43;3.27;;;7.90;73.10;;;;;;5072571;28;20175;-84
2021/03/12 00:35:50;;;;;;;6.40;2.13;;;7.90;73.60;;;;;;5072440;28;20598;-81
2021/03/12 00:38:15;;;;;;;13.47;3.20;;;8.00;70.30;;;;;;5074007;28;20168;-80
2021/03/12 00:40:41;;;;;;;13.47;3.33;;;7.90;70.70;;;;;;5073840;28;20231;-79
2021/03/12 00:43:06;;;;;;;10.53;3.00;;;7.90;69.70;;;;;;5074078;28;20658;-84
2021/03/12 00:45:35;;;;;;;15.53;3.43;;;7.90;69.60;;;;;;5074047;28;20165;-77
2021/03/12 00:48:01;;;;;;;12.83;2.70;;;7.90;67.40;;;;;;5074427;28;20164;-83
2021/03/12 00:50:30;;;;;;;10.23;3.43;;;7.90;64.00;;;;;;5073958;28;20261;-84
2021/03/12 00:52:56;;;;;;;10.53;3.63;;;8.00;61.90;;;;;;5073907;28;20210;-77
2021/03/12 00:55:21;;;;;;;11.87;2.70;;;7.90;61.20;;;;;;5055332;28;20177;-85
2021/03/12 00:57:47;;;;;;;14.97;3.33;;;7.90;62.50;;;;;;5073935;28;20168;-85
2021/03/12 01:00:14;;;;;;;12.77;3.00;;;7.90;60.70;;;;;;5073940;28;20168;-84
2021/03/12 01:02:39;;;;;;;13.00;3.40;;;8.00;56.40;;;;;;5073413;28;20545;-78
2021/03/12 01:05:06;;;;;;;13.93;2.70;;;8.10;55.30;;;;;;5074070;28;20637;-87
2021/03/12 01:07:32;;;;;;;12.67;3.10;;;8.10;52.40;;;;;;5073715;28;20165;-85
2021/03/12 01:09:58;;;;;;;8.67;2.30;;;8.10;49.40;;;;;;5073822;28;20195;-85
2021/03/12 01:12:23;;;;;;;8.10;2.40;;;8.10;46.10;;;;;;5073707;28;20203;-85
2021/03/12 01:14:49;;;;;;;9.60;2.67;;;8.10;43.40;;;;;;5056000;28;20508;-84
2021/03/12 01:17:14;;;;;;;9.80;2.60;;;8.20;43.20;;;;;;5055650;28;20202;-81
2021/03/12 01:19:40;;;;;;;10.53;3.27;;;8.20;42.60;;;;;;5073693;28;20651;-84
2021/03/12 01:22:06;;;;;;;11.53;3.07;;;8.10;45.10;;;;;;5055614;28;20187;-85
2021/03/12 01:24:31;;;;;;;12.77;2.80;;;8.20;46.60;;;;;;5073438;28;20244;-86
2021/03/12 01:26:59;;;;;;;12.70;2.50;;;8.10;49.70;;;;;;5073713;28;20249;-86
2021/03/12 01:29:25;;;;;;;11.27;2.70;;;8.10;51.70;;;;;;5055829;28;20199;-84
2021/03/12 01:31:50;;;;;;;10.37;2.70;;;8.20;52.80;;;;;;5055490;28;20299;-85
2021/03/12 01:34:16;;;;;;;11.97;2.70;;;8.20;53.70;;;;;;5073734;28;20180;-77
2021/03/12 01:36:42;;;;;;;15.23;3.30;;;8.10;55.10;;;;;;5055462;28;20173;-84
2021/03/12 01:39:07;;;;;;;14.53;2.70;;;8.20;54.60;;;;;;5073381;28;20164;-84
2021/03/12 01:41:33;;;;;;;10.30;3.33;;;8.20;54.40;;;;;;5073078;28;20234;-80
2021/03/12 01:43:58;;;;;;;13.30;2.83;;;8.10;51.10;;;;;;5073620;28;20171;-84
2021/03/12 01:46:24;;;;;;;11.87;3.00;;;8.10;53.40;;;;;;5073383;28;20182;-85
2021/03/12 01:48:50;;;;;;;14.90;3.27;;;8.10;52.20;;;;;;5072883;28;20275;-80
2021/03/12 01:51:16;;;;;;;12.23;3.57;;;8.10;52.30;;;;;;5073510;28;20211;-82
2021/03/12 01:53:42;;;;;;;12.73;3.63;;;8.10;53.50;;;;;;5072877;28;20184;-84
2021/03/12 01:56:07;;;;;;;12.63;3.00;;;8.10;54.10;;;;;;5073320;28;20195;-86
2021/03/12 01:58:34;;;;;;;13.10;4.07;;;8.20;52.70;;;;;;5073289;28;20172;-78
2021/03/12 02:00:59;;;;;;;15.70;2.97;;;8.10;54.20;;;;;;5073026;28;20183;-81
2021/03/12 02:03:28;;;;;;;12.13;3.03;;;8.10;56.50;;;;;;5055205;28;20172;-85
2021/03/12 02:05:54;;;;;;;13.50;3.97;;;8.20;55.70;;;;;;5072928;28;20183;-83
2021/03/12 02:08:20;;;;;;;14.20;3.27;;;8.20;54.10;;;;;;5078531;28;20178;-78
2021/03/12 02:10:47;;;;;;;17.87;3.27;;;8.20;54.30;;;;;;5076995;28;20168;-84
2021/03/12 02:13:26;;;;;;;15.97;3.57;;;8.20;55.20;;;;;;5077153;28;20218;-84
2021/03/12 02:16:16;;;;;;;12.33;2.93;;;8.20;54.20;;;;;;5077039;28;20164;-84
2021/03/12 02:19:12;;;;;;;14.13;3.00;;;8.20;52.90;;;;;;5077028;28;20164;-79
2021/03/12 02:21:44;;;;;;;16.80;3.13;;;8.10;51.50;;;;;;5076969;28;20215;-84
2021/03/12 02:24:39;;;;;;;10.87;3.13;;;8.10;51.40;;;;;;5076897;28;20212;-83
2021/03/12 02:27:24;;;;;;;13.90;2.80;;;8.10;51.50;;;;;;5058824;28;20659;-82
2021/03/12 02:29:55;;;;;;;11.50;2.77;;;8.10;52.50;;;;;;5076473;28;20160;-79
2021/03/12 02:32:29;;;;;;;14.97;3.80;;;8.10;54.50;;;;;;5076700;28;20562;-83
2021/03/12 02:34:56;;;;;;;14.47;3.30;;;8.10;54.40;;;;;;5076669;28;20628;-84
2021/03/12 02:37:23;;;;;;;14.57;3.13;;;8.10;56.60;;;;;;5076320;28;20191;-82
2021/03/12 02:39:56;;;;;;;17.53;3.67;;;8.10;57.90;;;;;;5076159;28;20172;-84
2021/03/12 02:42:22;;;;;;;10.93;3.27;;;8.10;58.30;;;;;;5058472;28;20178;-82
2021/03/12 02:44:50;;;;;;;19.73;3.50;;;8.00;61.30;;;;;;5076275;28;20247;-84
2021/03/12 02:47:36;;;;;;;13.97;2.70;;;7.90;63.90;;;;;;5076473;28;20171;-83
2021/03/12 02:50:05;;;;;;;15.83;3.10;;;8.00;65.30;;;;;;5075372;28;20216;-81
2021/03/12 02:52:30;;;;;;;17.13;3.70;;;8.00;65.30;;;;;;5075803;28;20227;-82
2021/03/12 02:54:56;;;;;;;12.17;3.77;;;8.00;65.20;;;;;;5076090;28;20169;-83
2021/03/12 02:57:23;;;;;;;17.23;4.50;;;8.00;64.80;;;;;;5076282;28;20180;-83
2021/03/12 02:59:54;;;;;;;11.87;2.90;;;8.00;65.30;;;;;;5076049;28;20191;-82
2021/03/12 03:02:25;;;;;;;9.70;3.17;;;8.00;62.10;;;;;;5076053;28;20263;-78
2021/03/12 03:04:54;;;;;;;12.83;3.23;;;8.00;61.20;;;;;;5075776;28;20169;-84
2021/03/12 03:07:21;;;;;;;8.00;2.63;;;8.00;58.30;;;;;;5076185;28;20664;-81
2021/03/12 03:09:48;;;;;;;10.90;2.60;;;7.90;59.70;;;;;;5075531;28;20534;-82
2021/03/12 03:12:17;;;;;;;14.87;2.60;;;8.00;55.60;;;;;;5075990;28;20299;-81
2021/03/12 03:14:47;;;;;;;12.33;3.33;;;8.00;54.60;;;;;;5075818;28;20157;-83
2021/03/12 03:17:14;;;;;;;11.40;3.13;;;8.00;55.00;;;;;;5075726;28;20168;-83
2021/03/12 03:19:43;;;;;;;11.27;2.87;;;7.90;55.90;;;;;;5075287;28;20266;-79
2021/03/12 03:22:09;;;;;;;12.17;2.70;;;8.00;56.20;;;;;;5057734;28;20177;-83
2021/03/12 03:24:34;;;;;;;13.80;3.53;;;8.00;55.50;;;;;;5077249;28;20171;-84
2021/03/12 03:27:00;;;;;;;18.40;3.40;;;8.00;58.00;;;;;;5075526;28;20644;-84
2021/03/12 03:29:26;;;;;;;14.23;3.00;;;8.00;59.60;;;;;;5077693;28;20771;-82
2021/03/12 03:31:52;;;;;;;12.57;3.37;;;8.00;59.10;;;;;;5075610;28;20200;-76
2021/03/12 03:34:17;;;;;;;13.33;3.53;;;8.00;59.70;;;;;;5075287;28;20168;-83
2021/03/12 03:36:44;;;;;;;18.03;3.70;;;8.10;60.30;;;;;;5075659;28;20168;-85
2021/03/12 03:39:11;;;;;;;14.40;3.10;;;8.00;63.90;;;;;;5075495;28;20624;-84
2021/03/12 03:41:43;;;;;;;11.80;3.10;;;8.00;66.40;;;;;;5075494;28;20239;-84
2021/03/12 03:44:10;;;;;;;18.60;4.37;;;7.90;70.00;;;;;;5075174;28;20168;-83
2021/03/12 03:46:41;;;;;;;15.93;3.70;;;7.80;73.30;;;;;;5075392;28;20195;-83
2021/03/12 03:49:09;;;;;;;17.10;3.50;;;7.70;74.80;;;;;;5074746;28;20664;-82
2021/03/12 03:51:38;;;;;;;11.47;3.13;;;7.60;77.90;;;;;;5075233;28;20239;-81
2021/03/12 03:54:05;;;;;;;11.37;2.97;;;7.70;79.00;;;;;;5075130;28;20636;-82
2021/03/12 03:56:31;;;;;;;11.37;3.43;;;7.60;79.40;;;;;;5075044;28;20161;-77
2021/03/12 03:58:58;;;;;;;13.80;3.33;;;7.60;81.70;;;;;;5074972;28;20172;-82
2021/03/12 04:01:24;;;;;;;12.37;3.27;;;7.80;81.00;;;;;;5074808;28;20161;-84
2021/03/12 04:03:52;;;;;;;16.67;3.57;;;7.70;80.60;;;;;;5074826;28;20242;-76
2021/03/12 04:06:18;;;;;;;19.33;4.00;;;7.60;83.20;;;;;;5074750;28;20168;-82
2021/03/12 04:08:44;;;;;;;15.13;4.00;;;7.60;84.40;;;;;;5074904;28;20168;-81
2021/03/12 04:11:11;;;;;;;11.60;3.23;;;7.60;84.00;;;;;;5074542;28;20592;-80
2021/03/12 04:13:37;;;;;;;20.57;3.63;;;7.50;85.20;;;;;;5074723;28;20199;-80
2021/03/12 04:16:04;;;;;;;12.33;2.97;;;7.40;86.50;;;;;;5074681;28;20169;-85
2021/03/12 04:18:30;;;;;;;16.70;4.10;;;7.40;87.50;;;;;;5074838;28;20241;-83
2021/03/12 04:20:58;;;;;;;11.97;2.93;;;7.40;88.30;;;;;;5074224;28;20255;-82
2021/03/12 04:23:24;;;;;;;15.80;3.37;;;7.40;87.10;;;;;;5074684;28;20180;-84
2021/03/12 04:25:50;;;;;;;15.97;3.77;;;7.40;85.60;;;;;;5074430;28;20251;-78
2021/03/12 04:28:16;;;;;;;16.67;3.90;;;7.30;88.30;;;;;;5074474;28;20169;-78
2021/03/12 04:30:43;;;;;;;13.53;3.20;;;7.20;90.20;;;;;;5073429;28;20168;-76
2021/03/12 04:33:10;;;;;;;18.83;3.70;;;7.20;91.10;;;;;;5073994;28;20698;-76
2021/03/12 04:35:36;;;;;;;11.37;3.17;;;7.20;91.00;;;;;;5074333;28;20163;-80
2021/03/12 04:38:03;;;;;;;16.93;3.47;;;7.10;91.40;;;;;;5074143;28;20176;-82
2021/03/12 04:40:30;;;;;;;17.17;3.73;;;7.20;92.30;;;;;;5074146;28;20184;-83
2021/03/12 04:42:56;;;;;;;15.80;3.73;;;7.10;92.10;;;;;;5074309;28;20164;-85
2021/03/12 04:45:22;;;;;;;17.47;3.53;;;7.10;92.70;;;;;;5074856;28;20168;-84
2021/03/12 04:47:49;;;;;;;13.53;3.97;;;7.00;93.30;;;;;;5074486;28;20188;-84
2021/03/12 04:50:15;;;;;;;17.63;4.47;;;7.00;93.50;;;;;;5073814;28;20234;-84
2021/03/12 04:52:41;;;;;;;19.67;4.93;;;7.10;94.20;;;;;;5073984;28;20218;-83
2021/03/12 04:55:11;;;;;;;14.53;3.40;;;6.90;94.20;;;;;;5074047;28;20179;-82
2021/03/12 04:57:37;;;;;;;16.47;3.73;;;6.80;94.40;;;;;;5074073;28;20238;-83
2021/03/12 05:00:06;;;;;;;20.50;3.70;;;6.70;95.00;;;;;;5074060;28;20188;-85
2021/03/12 05:02:34;;;;;;;13.97;3.03;;;6.70;95.40;;;;;;5073692;28;20212;-84
2021/03/12 05:05:00;;;;;;;17.20;3.63;;;6.70;95.80;;;;;;5073908;28;20775;-84
2021/03/12 05:07:26;;;;;;;15.67;3.47;;;6.80;95.20;;;;;;5073662;28;20165;-85
2021/03/12 05:09:52;;;;;;;12.93;3.80;;;6.80;94.90;;;;;;5055671;28;20176;-83
2021/03/12 05:12:17;;;;;;;10.73;2.80;;;6.80;95.10;;;;;;5073706;28;20199;-85
2021/03/12 05:14:43;;;;;;;16.77;3.17;;;6.80;95.20;;;;;;5073726;28;20597;-84
2021/03/12 05:17:08;;;;;;;13.37;3.90;;;6.70;95.20;;;;;;5073039;28;20168;-85
2021/03/12 05:19:34;;;;;;;15.93;3.30;;;6.70;95.20;;;;;;5073332;28;20175;-85
2021/03/12 05:22:00;;;;;;;16.80;4.23;;;6.70;95.70;;;;;;5055635;28;20354;-83
2021/03/12 05:24:26;;;;;;;14.07;3.63;;;6.60;95.90;;;;;;5073812;28;20217;-85
2021/03/12 05:26:52;;;;;;;19.07;4.30;;;6.70;96.10;;;;;;5073882;28;20636;-85
2021/03/12 05:29:18;;;;;;;14.70;3.53;;;6.70;95.70;;;;;;5073234;28;20482;-84
2021/03/12 05:31:43;;;;;;;11.47;2.93;;;6.70;95.80;;;;;;5076431;28;20200;-84
2021/03/12 05:34:09;;;;;;;14.10;3.53;;;6.70;95.70;;;;;;5073486;28;20169;-85
2021/03/12 05:36:38;;;;;;;20.57;3.73;;;6.70;95.90;;;;;;5073327;28;20184;-82
2021/03/12 05:39:05;;;;;;;14.17;3.10;;;6.60;96.20;;;;;;5073150;28;20160;-85
2021/03/12 05:41:32;;;;;;;14.10;4.17;;;6.60;96.30;;;;;;5072893;28;20651;-82
2021/03/12 05:44:02;;;;;;;18.73;4.23;;;6.60;96.40;;;;;;5073111;28;20647;-77
2021/03/12 05:46:28;;;;;;;12.80;3.73;;;6.70;96.50;;;;;;5073028;28;20172;-84
2021/03/12 05:48:54;;;;;;;15.93;3.53;;;6.70;95.60;;;;;;5072735;28;20192;-83
2021/03/12 05:51:21;;;;;;;15.60;4.37;;;6.70;96.00;;;;;;5072759;28;20212;-78
2021/03/12 05:53:46;;;;;;;21.87;5.10;;;6.80;95.30;;;;;;5055119;28;20606;-84
2021/03/12 05:56:12;;;;;;;18.57;3.67;;;6.70;95.60;;;;;;5073300;28;20255;-86
2021/03/12 05:58:38;;;;;;;16.57;4.20;;;6.90;95.40;;;;;;5073237;28;20616;-78
2021/03/12 06:01:04;;;;;;;13.17;3.43;;;6.80;95.50;;;;;;5072852;28;20226;-82
2021/03/12 06:03:30;;;;;;;15.43;3.50;;;6.70;95.70;;;;;;5054988;28;20180;-84
2021/03/12 06:05:55;;;;;;;20.53;4.73;;;6.70;96.30;;;;;;5072769;28;20644;-76
2021/03/12 06:08:21;;;;;;;20.03;4.83;;;6.70;96.50;;;;;;5072486;28;20215;-82
2021/03/12 06:10:47;;;;;;;19.13;4.13;;;6.70;96.40;;;;;;5072630;28;20225;-78
2021/03/12 06:13:12;;;;;;;22.73;4.20;;;6.80;96.50;;;;;;5072676;28;20215;-77
2021/03/12 06:15:40;;;;;;;13.37;4.37;;;6.80;96.20;;;;;;5072699;28;20173;-84
2021/03/12 06:18:18;;;;;;;15.57;3.93;;;6.80;96.10;;;;;;5072565;28;20168;-77
2021/03/12 06:20:43;;;;;;;14.70;4.70;;;6.80;96.00;;;;;;5072820;28;20651;-82
2021/03/12 06:23:09;;;;;;;17.83;4.87;;;6.80;96.20;;;;;;5072149;28;20173;-77
2021/03/12 06:25:36;;;;;;;14.17;4.23;;;6.90;96.40;;;;;;5072444;28;20182;-78
2021/03/12 06:28:14;;;;;;;20.80;4.80;;;6.90;95.90;;;;;;5072056;28;20252;-83
2021/03/12 06:30:40;;;;;;;17.40;3.53;;;7.00;95.70;;;;;;5072433;28;20165;-83
2021/03/12 06:33:06;;;;;;;16.83;5.00;;;7.00;95.40;;;;;;5072096;28;20698;-76
2021/03/12 06:35:37;;;;;;;14.37;4.70;;;6.90;95.60;;;;;;5072249;28;20164;-80
2021/03/12 06:38:08;;;;;;;21.67;4.27;;;7.00;95.60;;;;;;5072165;28;20251;-77
2021/03/12 06:40:36;;;;;;;15.83;4.63;;;7.00;95.60;;;;;;5072030;28;20218;-82
2021/03/12 06:43:05;;;;;;;25.10;5.07;;;7.00;95.50;;;;;;5071931;28;20720;-84
2021/03/12 06:45:33;;;;;;;17.47;4.47;;;7.00;95.20;;;;;;5069934;28;20207;-77
2021/03/12 06:48:27;;;;;;;18.03;4.20;;;7.10;94.80;;;;;;5067564;28;20603;-79
2021/03/12 06:50:54;;;;;;;20.40;4.93;;;7.10;94.50;;;;;;5072026;28;20188;-86
2021/03/12 06:53:36;;;;;;;20.13;5.00;;;7.20;94.40;;;;;;5060481;28;20372;-85
2021/03/12 06:56:06;;;;;;;26.70;5.57;;;7.20;94.40;;;;;;5055848;28;20164;-86
2021/03/12 06:58:33;;;;;;;19.60;4.10;;;7.20;94.20;;;;;;5055762;28;20177;-89
2021/03/12 07:01:01;;;;;;;19.23;3.77;;;7.20;94.00;;;;;;5054301;28;20537;-81
2021/03/12 07:03:29;;;;;;;16.50;4.40;;;7.20;93.30;;;;;;5066776;28;20203;-80
2021/03/12 07:05:56;;;;;;;18.13;4.00;;;7.20;93.10;;;;;;5075273;28;20168;-81
2021/03/12 07:08:28;;;;;;;18.30;4.10;;;7.30;92.50;;;;;;5075268;28;20295;-87
2021/03/12 07:10:53;;;;;;;18.77;4.53;;;7.40;92.00;;;;;;5075427;28;20174;-85
2021/03/12 07:13:20;;;;;;;24.90;6.07;;;7.40;91.70;;;;;;5073371;28;20204;-85
2021/03/12 07:15:47;;;;;;;19.80;3.73;;;7.30;91.80;;;;;;5073593;28;20248;-79
2021/03/12 07:18:12;;;;;;;22.97;5.23;;;7.20;92.20;;;;;;5054821;28;20233;-87
2021/03/12 07:20:38;;;;;;;15.90;4.00;;;7.20;92.50;;;;;;5071988;28;20574;-83
2021/03/12 07:23:05;;;;;;;19.97;4.73;;;7.30;92.10;;;;;;5074264;28;20580;-82
2021/03/12 07:25:32;;;;;;;18.87;4.67;;;7.40;92.00;;;;;;5074548;28;20548;-79
2021/03/12 07:28:01;;;;;;;15.13;4.30;;;7.30;91.80;;;;;;5074586;28;20174;-85
2021/03/12 07:30:28;;;;;;;23.27;5.90;;;7.30;91.90;;;;;;5073820;28;20632;-82
2021/03/12 07:32:54;;;;;;;19.23;3.90;;;7.30;91.80;;;;;;5074029;28;20212;-84
2021/03/12 07:35:23;;;;;;;20.67;5.00;;;7.40;91.40;;;;;;5055396;28;20241;-81
2021/03/12 07:37:51;;;;;;;23.87;6.50;;;7.40;91.30;;;;;;5074395;28;20574;-82
2021/03/12 07:40:18;;;;;;;20.53;4.37;;;7.40;90.80;;;;;;5073592;28;20313;-82
2021/03/12 07:42:46;;;;;;;22.80;4.80;;;7.50;90.70;;;;;;5074317;28;20180;-81
2021/03/12 07:45:12;;;;;;;17.47;5.20;;;7.50;90.50;;;;;;5055735;28;20599;-80
2021/03/12 07:47:38;;;;;;;17.60;5.13;;;7.60;90.40;;;;;;5055954;28;20247;-79
2021/03/12 07:50:27;;;;;;;22.23;5.60;;;7.60;89.20;;;;;;5073344;28;20207;-85
2021/03/12 07:52:54;;;;;;;20.23;5.07;;;7.70;88.30;;;;;;5068520;28;20208;-83
2021/03/12 07:55:35;;;;;;;29.90;5.23;;;7.50;89.00;;;;;;5072510;28;20664;-80
2021/03/12 07:58:02;;;;;;;16.87;4.50;;;7.50;90.00;;;;;;5072790;28;20230;-79
2021/03/12 08:00:27;;;;;;;14.80;4.33;;;7.60;89.80;;;;;;5054524;28;20257;-79
2021/03/12 08:02:56;;;;;;;15.40;4.63;;;7.70;89.40;;;;;;5073601;28;20640;-79
2021/03/12 08:05:48;;;;;;;20.40;4.90;;;7.70;87.40;;;;;;5072046;28;20189;-81
2021/03/12 08:08:41;;;;;;;18.20;4.53;;;7.80;86.80;;;;;;5068483;28;20214;-78
2021/03/12 08:11:28;;;;;;;18.87;6.13;;;7.90;85.50;;;;;;5072346;28;20213;-83
2021/03/12 08:14:09;;;;;;;19.20;4.90;;;8.00;83.00;;;;;;5073297;28;20172;-76
2021/03/12 08:16:57;;;;;;;14.07;4.50;;;8.10;80.70;;;;;;5055274;28;20218;-80
2021/03/12 08:19:36;;;;;;;17.10;4.80;;;8.00;81.50;;;;;;5072683;28;20580;-84
2021/03/12 08:22:22;;;;;;;17.43;4.07;;;8.00;81.10;;;;;;5073282;28;20181;-80
2021/03/12 08:24:51;;;;;;;18.20;4.70;;;8.00;80.90;;;;;;5073016;28;20199;-82
2021/03/12 08:27:35;;;;;;;15.77;4.07;;;8.00;81.40;;;;;;5073190;28;20164;-83
2021/03/12 08:30:01;;;;;;;16.33;4.57;;;7.90;82.20;;;;;;5073297;28;20643;-81
2021/03/12 08:32:40;;;;;;;20.60;4.73;;;8.00;81.90;;;;;;5073038;28;20289;-84
2021/03/12 08:35:41;;;;;;;16.00;4.30;;;8.00;82.10;;;;;;5073390;28;20213;-85
2021/03/12 08:38:22;;;;;;;24.93;6.00;;;8.00;81.40;;;;;;5073548;28;20763;-83
2021/03/12 08:40:59;;;;;;;17.27;5.30;;;8.10;80.00;;;;;;5061667;28;20160;-83
2021/03/12 08:43:26;;;;;;;18.00;4.30;;;8.00;80.70;;;;;;5080726;28;20168;-81
2021/03/12 08:46:00;;;;;;;9.87;3.90;;;8.10;79.50;;;;;;5057811;28;20169;-83
2021/03/12 08:48:31;;;;;;;19.30;4.97;;;8.00;79.30;;;;;;5072988;28;20168;-86
2021/03/12 08:51:01;;;;;;;14.63;4.37;;;8.10;77.60;;;;;;5073240;28;20183;-85
2021/03/12 08:53:32;;;;;;;19.87;4.87;;;8.10;77.00;;;;;;5073170;28;20218;-82
2021/03/12 08:56:00;;;;;;;11.67;3.90;;;8.10;76.40;;;;;;5072875;28;20206;-80
2021/03/12 08:58:27;;;;;;;14.50;4.13;;;8.10;78.00;;;;;;5072983;28;20629;-88
2021/03/12 09:00:58;;;;;;;23.93;4.93;;;8.10;78.10;;;;;;5073418;28;20217;-90
2021/03/12 09:03:30;;;;;;;17.60;3.70;;;8.10;76.10;;;;;;5073452;28;20298;-89
2021/03/12 09:06:05;;;;;;;16.60;4.27;;;8.10;75.40;;;;;;5072696;28;20183;-86
2021/03/12 09:08:32;;;;;;;16.47;4.67;;;8.20;74.40;;;;;;5072478;28;20268;-88
2021/03/12 09:10:58;;;;;;;14.40;4.00;;;8.30;73.50;;;;;;5073016;28;20165;-87
2021/03/12 09:13:28;;;;;;;20.97;4.83;;;8.40;70.20;;;;;;5073066;28;20223;-84
2021/03/12 09:15:54;;;;;;;19.03;4.30;;;8.50;69.10;;;;;;5073522;28;20454;-85
2021/03/12 09:18:22;;;;;;;19.83;3.80;;;8.40;67.90;;;;;;5073019;28;20187;-87
2021/03/12 09:20:54;;;;;;;17.27;3.73;;;8.40;69.50;;;;;;5072668;28;20641;-84
2021/03/12 09:23:32;;;;;;;17.27;3.97;;;8.40;69.20;;;;;;5072013;28;20173;-89
2021/03/12 09:25:58;;;;;;;14.83;3.70;;;8.60;65.20;;;;;;5072359;28;20164;-80
2021/03/12 09:28:28;;;;;;;20.13;3.93;;;8.60;64.40;;;;;;5071427;28;20160;-80
2021/03/12 09:30:54;;;;;;;16.27;3.53;;;8.60;60.40;;;;;;5071754;28;20160;-81
2021/03/12 09:33:50;;;;;;;24.90;4.70;;;8.70;58.60;;;;;;5071690;28;20315;-77
2021/03/12 09:36:31;;;;;;;15.13;3.33;;;8.80;57.40;;;;;;5070928;28;20671;-80
2021/03/12 09:39:04;;;;;;;19.10;4.03;;;8.90;55.60;;;;;;5072256;28;20176;-83
2021/03/12 09:41:31;;;;;;;19.70;3.47;;;8.90;52.80;;;;;;5074532;28;20173;-83
2021/03/12 09:44:01;;;;;;;16.33;4.10;;;8.90;53.20;;;;;;5074630;28;20172;-82
2021/03/12 09:46:32;;;;;;;15.07;3.93;;;9.00;51.60;;;;;;5071654;28;20624;-86
2021/03/12 09:48:59;;;;;;;14.60;3.40;;;9.10;51.40;;;;;;5071270;28;20200;-83
2021/03/12 09:51:29;;;;;;;13.70;3.70;;;9.10;51.60;;;;;;5070904;28;20273;-80
2021/03/12 09:53:54;;;;;;;16.27;3.97;;;9.10;51.00;;;;;;5071107;28;20185;-82
2021/03/12 09:56:22;;;;;;;12.80;3.57;;;9.30;50.10;;;;;;5072127;28;20172;-82
2021/03/12 09:58:49;;;;;;;17.97;3.97;;;9.30;47.80;;;;;;5054029;28;20172;-83
2021/03/12 10:01:19;;;;;;;15.97;4.47;;;9.40;47.40;;;;;;5070477;28;20574;-84
2021/03/12 10:03:45;;;;;;;20.47;4.70;;;9.20;48.80;;;;;;5071364;28;20160;-82
2021/03/12 10:06:12;;;;;;;14.90;3.73;;;9.20;51.20;;;;;;5071054;28;20172;-81
2021/03/12 10:09:01;;;;;;;17.20;3.93;;;9.10;48.00;;;;;;5053222;28;20176;-80
2021/03/12 10:11:37;;;;;;;18.73;3.27;;;9.10;52.70;;;;;;5071440;28;20192;-78
2021/03/12 10:14:33;;;;;;;19.40;4.37;;;9.10;52.20;;;;;;5071693;28;20603;-86
2021/03/12 10:17:11;;;;;;;15.27;4.30;;;9.10;55.00;;;;;;5071482;28;20247;-85
2021/03/12 10:19:55;;;;;;;10.20;2.93;;;9.10;53.50;;;;;;5071190;28;20175;-85
2021/03/12 10:22:31;;;;;;;16.57;3.37;;;9.10;51.00;;;;;;5053666;28;20222;-83
2021/03/12 10:25:04;;;;;;;13.43;3.40;;;9.10;50.30;;;;;;5071524;28;20236;-87
2021/03/12 10:27:33;;;;;;;17.43;4.10;;;9.20;49.90;;;;;;5053989;28;20541;-82
2021/03/12 10:30:09;;;;;;;16.90;4.30;;;9.10;51.80;;;;;;5075415;28;20172;-83
2021/03/12 10:32:40;;;;;;;15.93;4.23;;;9.20;51.70;;;;;;5075484;28;20239;-85
2021/03/12 10:35:40;;;;;;;16.07;4.03;;;9.10;50.10;;;;;;5075311;28;20620;-84
2021/03/12 10:38:05;;;;;;;18.97;4.47;;;9.10;50.00;;;;;;5056653;28;20276;-84
2021/03/12 10:40:37;;;;;;;14.43;3.67;;;9.10;51.50;;;;;;5074712;28;20253;-84
2021/03/12 10:43:25;;;;;;;17.63;4.00;;;9.20;48.20;;;;;;5075110;28;20313;-85
2021/03/12 10:45:54;;;;;;;16.47;3.87;;;9.30;45.40;;;;;;5075352;28;20164;-83
2021/03/12 10:48:25;;;;;;;16.67;4.07;;;9.50;46.30;;;;;;5063966;28;20218;-87
2021/03/12 10:50:53;;;;;;;16.77;4.80;;;9.60;38.60;;;;;;5036989;28;20680;-86
2021/03/12 10:53:20;;;;;;;19.40;4.60;;;9.70;38.60;;;;;;5055016;28;20216;-87
2021/03/12 10:55:48;;;;;;;15.50;3.57;;;9.80;32.80;;;;;;5054894;28;20188;-78
2021/03/12 10:58:25;;;;;;;20.50;5.17;;;9.80;30.30;;;;;;5055059;28;20177;-86
2021/03/12 11:01:13;;;;;;;19.70;4.37;;;9.90;32.10;;;;;;5058617;28;20289;-81
2021/03/12 11:03:42;;;;;;;18.93;4.00;;;10.00;27.10;;;;;;5074608;28;20555;-86
2021/03/12 11:06:08;;;;;;;19.87;4.03;;;10.00;28.30;;;;;;5075272;28;20168;-80
2021/03/12 11:08:35;;;;;;;16.73;4.10;;;10.10;25.70;;;;;;5056914;28;20176;-81
2021/03/12 11:11:02;;;;;;;19.83;3.83;;;10.10;26.50;;;;;;5074177;28;20200;-83
2021/03/12 11:13:28;;;;;;;21.97;3.93;;;10.00;25.00;;;;;;5073431;28;20286;-85
2021/03/12 11:15:55;;;;;;;18.90;3.43;;;10.00;24.30;;;;;;5074341;28;20238;-89
2021/03/12 11:18:21;;;;;;;14.20;3.63;;;9.90;24.20;;;;;;5074303;28;20177;-88
2021/03/12 11:20:47;;;;;;;12.93;3.23;;;9.80;27.50;;;;;;5075186;28;20298;-78
2021/03/12 11:23:12;;;;;;;12.00;3.40;;;9.80;29.20;;;;;;5057331;28;20203;-78
2021/03/12 11:25:39;;;;;;;18.63;4.13;;;9.70;31.50;;;;;;5074866;28;20164;-85
2021/03/12 11:28:05;;;;;;;10.50;3.47;;;9.80;31.80;;;;;;5057496;28;20581;-83
2021/03/12 11:30:31;;;;;;;13.17;3.30;;;9.80;34.80;;;;;;5074594;28;20187;-84
2021/03/12 11:32:57;;;;;;;18.10;3.77;;;9.90;35.70;;;;;;5056517;28;20215;-85
2021/03/12 11:35:23;;;;;;;17.87;3.80;;;9.80;34.30;;;;;;5074674;28;20173;-83
2021/03/12 11:37:50;;;;;;;15.90;4.20;;;9.80;35.60;;;;;;5073904;28;20181;-84
2021/03/12 11:40:17;;;;;;;11.20;3.73;;;9.80;35.10;;;;;;5074577;28;20175;-80
2021/03/12 11:42:43;;;;;;;18.17;4.20;;;9.80;33.90;;;;;;5074905;28;20172;-77
2021/03/12 11:45:12;;;;;;;17.40;3.80;;;9.80;33.70;;;;;;5074455;28;20193;-86
2021/03/12 11:47:39;;;;;;;14.77;3.63;;;9.90;32.60;;;;;;5074688;28;20245;-82
2021/03/12 11:50:11;;;;;;;14.20;3.77;;;9.90;32.70;;;;;;5073593;28;20571;-78
2021/03/12 11:52:37;;;;;;;13.53;3.67;;;9.90;32.30;;;;;;5072619;28;20224;-89
2021/03/12 11:55:05;;;;;;;13.43;4.07;;;10.00;31.70;;;;;;5073318;28;20171;-89
2021/03/12 11:57:31;;;;;;;15.00;3.70;;;10.00;30.30;;;;;;5073726;28;20255;-87
2021/03/12 11:59:56;;;;;;;15.50;3.63;;;10.00;28.80;;;;;;5073243;28;20669;-86
2021/03/12 12:02:22;;;;;;;14.10;3.50;;;10.00;29.60;;;;;;5074149;28;20176;-91
2021/03/12 12:04:48;;;;;;;16.10;3.37;;;10.10;28.20;;;;;;5073983;28;20168;-88
2021/03/12 12:07:15;;;;;;;13.67;3.23;;;10.20;24.80;;;;;;5073661;28;20217;-84
2021/03/12 12:09:41;;;;;;;19.33;4.27;;;10.20;25.50;;;;;;5072920;28;20179;-81
2021/03/12 12:12:09;;;;;;;19.63;4.03;;;10.30;24.40;;;;;;5073579;28;20200;-83
2021/03/12 12:14:34;;;;;;;15.97;4.30;;;10.20;24.80;;;;;;5073056;28;20180;-86
2021/03/12 12:17:00;;;;;;;15.27;3.40;;;10.10;28.20;;;;;;5073080;28;20662;-88
2021/03/12 12:19:26;;;;;;;14.70;3.50;;;10.00;33.10;;;;;;5073228;28;20693;-83
2021/03/12 12:21:51;;;;;;;13.80;3.90;;;10.00;40.40;;;;;;5072946;28;20202;-88
2021/03/12 12:24:17;;;;;;;15.97;3.80;;;10.10;50.70;;;;;;5072121;28;20176;-87
2021/03/12 12:26:43;;;;;;;12.33;3.00;;;9.80;61.30;;;;;;5073602;28;20548;-90
2021/03/12 12:29:09;;;;;;;11.33;2.73;;;9.60;67.10;;;;;;5073278;28;20192;-89
2021/03/12 12:31:36;;;;;;;15.33;3.67;;;9.50;69.80;;;;;;5073899;28;20192;-85
2021/03/12 12:34:01;;;;;;;19.20;4.83;;;9.50;71.90;;;;;;5072993;28;20262;-84
2021/03/12 12:36:28;;;;;;;8.07;3.27;;;9.50;70.60;;;;;;5072946;28;20248;-85
2021/03/12 12:38:56;;;;;;;12.90;3.50;;;9.40;74.30;;;;;;5073197;28;20667;-77
2021/03/12 12:41:22;;;;;;;26.33;4.07;;;9.40;78.40;;;;;;5073278;28;20192;-86
2021/03/12 12:43:48;;;;;;;12.77;3.90;;;9.40;80.10;;;;;;5073063;28;20183;-86
2021/03/12 12:46:14;;;;;;;12.73;3.53;;;9.40;80.10;;;;;;5072533;28;20168;-87
2021/03/12 12:48:40;;;;;;;14.90;3.90;;;9.40;81.30;;;;;;5071457;28;20195;-84
2021/03/12 12:51:07;;;;;;;10.20;3.03;;;9.40;81.50;;;;;;5050530;28;626828;-89
2021/03/12 12:53:33;;;;;;;10.70;3.50;;;9.60;82.60;;;;;;5073457;28;20220;-86
2021/03/12 12:55:59;;;;;;;12.60;3.20;;;9.40;82.80;;;;;;5073648;28;20183;-85